createdAt,value
2023-01-25T00:00:30.865Z,19.20
2023-01-25T00:02:57.870Z,19.75
2023-01-25T00:05:24.731Z,18.60
2023-01-25T00:07:51.496Z,18.73
2023-01-25T00:10:18.538Z,17.65
2023-01-25T00:12:45.250Z,16.65
2023-01-25T00:15:12.267Z,16.60
2023-01-25T00:17:39.033Z,17.42
2023-01-25T00:20:06.415Z,19.15
2023-01-25T00:22:33.441Z,18.98
2023-01-25T00:25:00.172Z,17.77
2023-01-25T00:27:26.899Z,16.95
2023-01-25T00:29:53.623Z,17.45
2023-01-25T00:32:29.322Z,18.15
2023-01-25T00:34:56.591Z,17.25
2023-01-25T00:37:43.698Z,16.92
2023-01-25T00:40:11.956Z,16.95
2023-01-25T00:42:39.245Z,17.95
2023-01-25T00:45:06.973Z,17.33
2023-01-25T00:47:33.918Z,16.63
2023-01-25T00:50:00.631Z,16.60
2023-01-25T00:52:28.653Z,17.52
2023-01-25T00:54:55.573Z,18.65
2023-01-25T00:57:22.318Z,17.33
2023-01-25T00:59:49.144Z,18.55
2023-01-25T01:02:15.925Z,17.88
2023-01-25T01:04:42.708Z,17.20
2023-01-25T01:07:12.326Z,18.05
2023-01-25T01:09:39.130Z,18.45
2023-01-25T01:12:05.926Z,19.33
2023-01-25T01:14:32.793Z,18.65
2023-01-25T01:16:59.530Z,16.88
2023-01-25T01:19:26.315Z,18.02
2023-01-25T01:21:53.050Z,16.33
2023-01-25T01:24:20.143Z,18.52
2023-01-25T01:26:47.032Z,19.50
2023-01-25T01:29:13.854Z,19.48
2023-01-25T01:31:40.815Z,19.35
2023-01-25T01:34:07.631Z,19.58
2023-01-25T01:36:34.511Z,19.42
2023-01-25T01:39:01.208Z,20.27
2023-01-25T01:41:28.182Z,18.65
2023-01-25T01:43:55.025Z,18.27
2023-01-25T01:46:27.399Z,19.20
2023-01-25T01:49:22.110Z,20.00
2023-01-25T01:52:01.376Z,19.63
2023-01-25T01:54:49.144Z,18.25
2023-01-25T01:57:21.414Z,18.42
2023-01-25T01:59:55.265Z,19.23
2023-01-25T02:02:24.987Z,19.83
2023-01-25T02:04:54.851Z,19.65
2023-01-25T02:07:28.811Z,17.77
2023-01-25T02:09:55.668Z,18.48
2023-01-25T02:12:23.804Z,18.83
2023-01-25T02:14:52.906Z,18.65
2023-01-25T02:17:39.948Z,17.92
2023-01-25T02:20:28.226Z,18.48
2023-01-25T02:22:59.953Z,18.60
2023-01-25T02:25:28.115Z,18.40
2023-01-25T02:28:06.934Z,18.00
2023-01-25T02:30:34.431Z,19.08
2023-01-25T02:33:01.379Z,18.27
2023-01-25T02:35:40.305Z,19.10
2023-01-25T02:38:08.787Z,19.13
2023-01-25T02:40:48.603Z,20.48
2023-01-25T02:43:16.779Z,19.83
2023-01-25T02:45:47.925Z,19.63
2023-01-25T02:48:14.831Z,20.65
2023-01-25T02:50:41.654Z,19.58
2023-01-25T02:53:08.491Z,20.00
2023-01-25T02:55:35.237Z,19.98
2023-01-25T02:58:01.978Z,19.83
2023-01-25T03:00:28.856Z,20.08
2023-01-25T03:02:55.737Z,20.30
2023-01-25T03:05:22.607Z,20.50
2023-01-25T03:07:49.403Z,21.40
2023-01-25T03:10:16.392Z,21.90
2023-01-25T03:12:43.208Z,19.42
2023-01-25T03:15:10.528Z,19.63
2023-01-25T03:17:37.351Z,20.17
2023-01-25T03:20:06.132Z,20.45
2023-01-25T03:22:32.959Z,21.63
2023-01-25T03:24:59.746Z,17.77
2023-01-25T03:27:26.461Z,17.83
2023-01-25T03:29:53.168Z,17.98
2023-01-25T03:32:20.019Z,20.13
2023-01-25T03:34:46.892Z,18.95
2023-01-25T03:37:13.697Z,20.27
2023-01-25T03:39:41.035Z,21.23
2023-01-25T03:42:08.010Z,19.85
2023-01-25T03:44:34.802Z,21.25
2023-01-25T03:47:01.803Z,20.95
2023-01-25T03:49:28.718Z,19.35
2023-01-25T03:51:58.027Z,19.77
2023-01-25T03:54:24.896Z,18.13
2023-01-25T03:56:51.619Z,18.80
2023-01-25T03:59:18.524Z,19.48
2023-01-25T04:01:45.310Z,20.50
2023-01-25T04:04:12.094Z,21.83
2023-01-25T04:06:39.105Z,19.80
2023-01-25T04:09:06.728Z,21.65
2023-01-25T04:11:33.460Z,20.25
2023-01-25T04:14:00.255Z,19.90
2023-01-25T04:16:27.978Z,20.23
2023-01-25T04:18:54.729Z,18.95
2023-01-25T04:21:21.498Z,20.00
2023-01-25T04:23:48.280Z,20.63
2023-01-25T04:26:15.671Z,22.90
2023-01-25T04:28:42.567Z,20.70
2023-01-25T04:31:09.373Z,22.77
2023-01-25T04:33:36.086Z,21.25
2023-01-25T04:36:03.013Z,21.42
2023-01-25T04:38:29.770Z,20.23
2023-01-25T04:40:56.521Z,23.08
2023-01-25T04:43:23.458Z,21.38
2023-01-25T04:45:50.273Z,22.75
2023-01-25T04:48:17.111Z,22.10
2023-01-25T04:50:45.419Z,20.80
2023-01-25T04:53:13.017Z,20.75
2023-01-25T04:55:40.082Z,19.88
2023-01-25T04:58:06.925Z,20.55
2023-01-25T05:00:33.723Z,20.80
2023-01-25T05:03:00.607Z,21.77
2023-01-25T05:05:27.400Z,21.30
2023-01-25T05:07:54.206Z,22.17
2023-01-25T05:10:21.088Z,20.23
2023-01-25T05:12:47.886Z,21.83
2023-01-25T05:15:15.274Z,19.55
2023-01-25T05:17:42.065Z,20.23
2023-01-25T05:20:09.558Z,20.23
2023-01-25T05:22:36.314Z,19.17
2023-01-25T05:25:06.288Z,20.45
2023-01-25T05:27:33.120Z,20.27
2023-01-25T05:29:59.822Z,19.80
2023-01-25T05:32:26.625Z,20.52
2023-01-25T05:34:53.367Z,22.35
2023-01-25T05:37:21.586Z,21.38
2023-01-25T05:39:48.431Z,20.60
2023-01-25T05:42:18.039Z,21.67
2023-01-25T05:44:47.456Z,21.53
2023-01-25T05:47:16.930Z,21.75
2023-01-25T05:49:43.775Z,21.30
2023-01-25T05:52:17.386Z,20.27
2023-01-25T05:54:44.277Z,21.08
2023-01-25T05:57:11.406Z,20.95
2023-01-25T05:59:38.166Z,21.40
2023-01-25T06:02:04.999Z,20.10
2023-01-25T06:04:31.816Z,17.00
2023-01-25T06:06:58.556Z,19.33
2023-01-25T06:09:26.345Z,19.63
2023-01-25T06:11:53.232Z,18.58
2023-01-25T06:14:20.006Z,19.42
2023-01-25T06:16:46.675Z,20.15
2023-01-25T06:19:14.240Z,17.83
2023-01-25T06:21:41.054Z,20.65
2023-01-25T06:24:08.159Z,19.50
2023-01-25T06:26:34.982Z,20.17
2023-01-25T06:29:01.721Z,20.00
2023-01-25T06:31:28.582Z,20.45
2023-01-25T06:33:55.355Z,20.50
2023-01-25T06:36:22.793Z,23.02
2023-01-25T06:38:51.609Z,20.45
2023-01-25T06:41:19.737Z,19.50
2023-01-25T06:43:47.966Z,22.27
2023-01-25T06:46:14.960Z,22.98
2023-01-25T06:48:43.084Z,22.45
2023-01-25T06:51:15.086Z,22.83
2023-01-25T06:53:44.288Z,21.52
2023-01-25T06:56:17.838Z,19.88
2023-01-25T06:58:45.349Z,20.15
2023-01-25T07:01:20.952Z,19.75
2023-01-25T07:03:52.927Z,21.23
2023-01-25T07:06:20.011Z,14.23
2023-01-25T07:08:47.279Z,20.13
2023-01-25T07:11:15.110Z,19.38
2023-01-25T07:13:45.554Z,19.90
2023-01-25T07:16:19.207Z,18.13
2023-01-25T07:18:46.731Z,18.00
2023-01-25T07:21:24.077Z,18.70
2023-01-25T07:23:51.722Z,20.45
2023-01-25T07:26:24.089Z,20.65
2023-01-25T07:28:52.047Z,21.10
2023-01-25T07:31:19.869Z,20.52
2023-01-25T07:33:51.667Z,21.50
2023-01-25T07:36:19.292Z,22.55
2023-01-25T07:38:46.712Z,21.33
2023-01-25T07:41:13.501Z,22.35
2023-01-25T07:43:40.561Z,22.42
2023-01-25T07:46:12.817Z,22.17
2023-01-25T07:48:41.460Z,23.45
2023-01-25T07:51:11.663Z,22.00
2023-01-25T07:53:43.319Z,23.35
2023-01-25T07:56:11.921Z,23.00
2023-01-25T07:58:39.431Z,23.27
2023-01-25T08:01:11.290Z,23.08
2023-01-25T08:03:38.619Z,24.70
2023-01-25T08:06:06.412Z,23.33
2023-01-25T08:08:34.751Z,24.33
2023-01-25T08:11:26.524Z,24.42
2023-01-25T08:13:53.474Z,25.88
2023-01-25T08:16:23.099Z,26.45
2023-01-25T08:18:51.741Z,25.00
2023-01-25T08:21:18.885Z,24.58
2023-01-25T08:23:46.062Z,26.15
2023-01-25T08:26:14.867Z,25.88
2023-01-25T08:28:41.680Z,26.80
2023-01-25T08:31:11.042Z,25.33
2023-01-25T08:33:38.185Z,27.15
2023-01-25T08:36:06.277Z,26.83
2023-01-25T08:38:33.118Z,28.45
2023-01-25T08:41:25.366Z,25.90
2023-01-25T08:43:53.987Z,27.20
2023-01-25T08:46:21.862Z,28.23
2023-01-25T08:48:48.846Z,27.65
2023-01-25T08:51:16.985Z,27.58
2023-01-25T08:53:43.911Z,27.83
2023-01-25T08:56:12.969Z,28.48
2023-01-25T08:58:45.354Z,29.50
2023-01-25T09:01:14.021Z,28.48
2023-01-25T09:03:51.124Z,28.08
2023-01-25T09:06:19.867Z,27.13
2023-01-25T09:08:47.264Z,27.45
2023-01-25T09:11:17.193Z,27.95
2023-01-25T09:13:44.456Z,25.83
2023-01-25T09:16:18.008Z,24.73
2023-01-25T09:18:45.376Z,26.42
2023-01-25T09:21:17.946Z,26.88
2023-01-25T09:24:05.694Z,26.98
2023-01-25T09:26:35.271Z,26.63
2023-01-25T09:29:02.145Z,30.23
2023-01-25T09:31:30.472Z,28.33
2023-01-25T09:33:58.465Z,27.27
2023-01-25T09:36:25.847Z,28.63
2023-01-25T09:38:52.842Z,28.08
2023-01-25T09:41:31.753Z,27.77
2023-01-25T09:44:29.769Z,28.55
2023-01-25T09:47:04.696Z,27.52
2023-01-25T09:49:43.948Z,26.65
2023-01-25T09:52:48.326Z,28.05
2023-01-25T09:55:19.014Z,28.85
2023-01-25T09:57:48.211Z,27.05
2023-01-25T10:00:49.856Z,27.58
2023-01-25T10:03:27.538Z,29.08
2023-01-25T10:05:58.682Z,25.88
2023-01-25T10:08:29.858Z,26.23
2023-01-25T10:11:23.390Z,26.83
2023-01-25T10:13:50.648Z,24.42
2023-01-25T10:16:46.006Z,26.60
2023-01-25T10:19:43.940Z,27.25
2023-01-25T10:22:24.401Z,29.88
2023-01-25T10:25:18.668Z,28.98
2023-01-25T10:28:13.056Z,27.92
2023-01-25T10:30:46.993Z,28.45
2023-01-25T10:33:17.611Z,30.15
2023-01-25T10:35:47.495Z,28.35
2023-01-25T10:38:24.922Z,28.55
2023-01-25T10:41:04.484Z,29.05
2023-01-25T10:43:31.476Z,29.38
2023-01-25T10:45:58.297Z,31.05
2023-01-25T10:48:31.135Z,28.75
2023-01-25T10:53:39.348Z,28.90
2023-01-25T10:56:12.011Z,28.85
2023-01-25T10:58:46.148Z,28.83
2023-01-25T11:01:25.466Z,29.02
2023-01-25T11:03:52.334Z,30.85
2023-01-25T11:06:35.770Z,31.40
2023-01-25T11:09:22.455Z,34.53
2023-01-25T11:11:55.690Z,31.25
2023-01-25T11:14:27.125Z,30.10
2023-01-25T11:16:55.364Z,29.80
2023-01-25T11:19:31.509Z,31.83
2023-01-25T11:21:59.968Z,29.52
2023-01-25T11:24:32.219Z,29.02
2023-01-25T11:27:22.651Z,30.58
2023-01-25T11:30:18.961Z,29.35
2023-01-25T11:32:45.824Z,33.08
2023-01-25T11:35:19.492Z,31.85
2023-01-25T11:38:19.493Z,30.73
2023-01-25T11:40:53.034Z,30.85
2023-01-25T11:43:38.393Z,29.50
2023-01-25T11:46:34.105Z,29.23
2023-01-25T11:49:18.222Z,30.52
2023-01-25T11:51:56.699Z,30.08
2023-01-25T11:54:23.571Z,29.05
2023-01-25T11:57:10.064Z,28.50
2023-01-25T11:59:50.536Z,30.33
2023-01-25T12:02:23.601Z,30.45
2023-01-25T12:05:21.213Z,29.60
2023-01-25T12:08:03.055Z,28.60
2023-01-25T12:10:51.500Z,28.10
2023-01-25T12:13:33.205Z,28.40
2023-01-25T12:16:13.753Z,25.40
2023-01-25T12:18:58.577Z,26.23
2023-01-25T12:21:40.443Z,25.55
2023-01-25T12:24:22.259Z,27.25
2023-01-25T12:27:15.071Z,28.23
2023-01-25T12:29:51.104Z,27.45
2023-01-25T12:32:45.568Z,26.95
2023-01-25T12:35:37.582Z,26.90
2023-01-25T12:38:13.613Z,26.10
2023-01-25T12:41:05.564Z,25.77
2023-01-25T12:43:46.485Z,24.83
2023-01-25T12:46:26.626Z,27.67
2023-01-25T12:48:58.581Z,25.42
2023-01-25T12:51:34.255Z,25.40
2023-01-25T12:54:07.005Z,29.20
2023-01-25T12:59:16.830Z,28.02
2023-01-25T13:04:30.039Z,26.80
2023-01-25T13:07:20.251Z,28.13
2023-01-25T13:10:12.452Z,28.52
2023-01-25T13:12:52.974Z,29.43
2023-01-25T13:15:37.445Z,29.55
2023-01-25T13:18:29.542Z,29.65
2023-01-25T13:20:58.415Z,30.77
2023-01-25T13:23:50.985Z,30.45
2023-01-25T13:26:28.464Z,30.80
2023-01-25T13:29:01.591Z,29.58
2023-01-25T13:31:58.925Z,32.38
2023-01-25T13:34:42.426Z,32.63
2023-01-25T13:37:31.509Z,30.10
2023-01-25T13:40:05.703Z,32.05
2023-01-25T13:42:38.328Z,30.70
2023-01-25T13:45:08.536Z,32.70
2023-01-25T13:47:38.240Z,32.63
2023-01-25T13:50:25.760Z,31.08
2023-01-25T13:53:18.487Z,30.85
2023-01-25T13:55:49.042Z,21.58
2023-01-25T13:58:21.906Z,30.05
2023-01-25T14:03:34.109Z,30.20
2023-01-25T14:06:02.973Z,31.83
2023-01-25T14:08:31.277Z,30.60
2023-01-25T14:10:58.544Z,30.52
2023-01-25T14:13:25.633Z,32.97
2023-01-25T14:15:58.521Z,32.80
2023-01-25T14:18:31.061Z,32.50
2023-01-25T14:21:19.543Z,34.08
2023-01-25T14:23:48.928Z,30.80
2023-01-25T14:26:26.814Z,30.50
2023-01-25T14:29:01.351Z,29.08
2023-01-25T14:31:35.482Z,30.02
2023-01-25T14:34:04.969Z,29.35
2023-01-25T14:36:34.741Z,28.85
2023-01-25T14:39:04.505Z,31.35
2023-01-25T14:41:39.996Z,27.45
2023-01-25T14:44:12.989Z,30.27
2023-01-25T14:46:41.507Z,30.35
2023-01-25T14:49:25.655Z,29.45
2023-01-25T14:52:13.607Z,29.75
2023-01-25T14:54:53.018Z,29.85
2023-01-25T14:57:25.875Z,28.20
2023-01-25T14:59:54.753Z,26.13
2023-01-25T15:02:47.261Z,27.70
2023-01-25T15:05:29.861Z,29.27
2023-01-25T15:07:58.915Z,29.50
2023-01-25T15:10:31.047Z,29.13
2023-01-25T15:13:25.646Z,30.10
2023-01-25T15:16:00.818Z,28.98
2023-01-25T15:18:55.799Z,28.50
2023-01-25T15:21:26.724Z,30.15
2023-01-25T15:23:55.350Z,28.05
2023-01-25T15:26:23.603Z,30.75
2023-01-25T15:28:52.741Z,29.25
2023-01-25T15:31:31.172Z,29.52
2023-01-25T15:34:00.298Z,31.67
2023-01-25T15:36:27.872Z,30.67
2023-01-25T15:38:54.755Z,33.70
2023-01-25T15:41:21.844Z,33.20
2023-01-25T15:43:49.819Z,31.73
2023-01-25T15:46:28.573Z,43.78
2023-01-25T15:48:56.639Z,31.13
2023-01-25T15:51:23.669Z,33.25
2023-01-25T15:53:50.995Z,33.30
2023-01-25T15:56:28.806Z,36.03
2023-01-25T15:59:01.569Z,30.55
2023-01-25T16:03:57.491Z,29.35
2023-01-25T16:06:35.881Z,34.42
2023-01-25T16:09:13.074Z,32.83
2023-01-25T16:11:39.929Z,33.65
2023-01-25T16:14:06.766Z,31.70
2023-01-25T16:16:38.095Z,30.40
2023-01-25T16:19:05.154Z,42.50
2023-01-25T16:21:32.191Z,27.52
2023-01-25T16:23:59.173Z,28.27
2023-01-25T16:26:29.336Z,28.15
2023-01-25T16:28:56.572Z,27.13
2023-01-25T16:31:32.412Z,27.77
2023-01-25T16:34:01.819Z,29.83
2023-01-25T16:36:29.532Z,29.40
2023-01-25T16:38:56.480Z,27.65
2023-01-25T16:41:23.268Z,26.73
2023-01-25T16:43:50.226Z,26.52
2023-01-25T16:46:22.666Z,28.55
2023-01-25T16:48:52.368Z,26.30
2023-01-25T16:51:23.428Z,27.10
2023-01-25T16:53:52.180Z,26.25
2023-01-25T16:56:27.702Z,23.52
2023-01-25T16:58:57.117Z,24.63
2023-01-25T17:01:25.175Z,25.30
2023-01-25T17:03:52.132Z,24.02
2023-01-25T17:06:23.145Z,22.88
2023-01-25T17:08:50.885Z,22.30
2023-01-25T17:11:22.143Z,22.63
2023-01-25T17:13:54.202Z,23.13
2023-01-25T17:16:23.745Z,24.65
2023-01-25T17:18:57.189Z,23.58
2023-01-25T17:21:24.652Z,24.38
2023-01-25T17:23:51.950Z,24.08
2023-01-25T17:26:21.048Z,20.70
2023-01-25T17:28:47.976Z,22.13
2023-01-25T17:31:26.841Z,21.38
2023-01-25T17:33:55.146Z,22.05
2023-01-25T17:36:22.361Z,24.13
2023-01-25T17:38:49.553Z,21.15
2023-01-25T17:41:17.415Z,22.80
2023-01-25T17:43:44.526Z,22.83
2023-01-25T17:46:26.160Z,24.70
2023-01-25T17:48:53.672Z,23.45
2023-01-25T17:51:22.268Z,27.90
2023-01-25T17:53:50.430Z,22.60
2023-01-25T17:56:19.030Z,24.45
2023-01-25T17:58:46.288Z,24.95
2023-01-25T18:01:21.902Z,27.20
2023-01-25T18:03:51.020Z,26.05
2023-01-25T18:06:21.584Z,26.30
2023-01-25T18:08:50.241Z,24.33
2023-01-25T18:11:25.890Z,23.50
2023-01-25T18:13:57.918Z,27.25
2023-01-25T18:16:26.535Z,29.48
2023-01-25T18:18:54.764Z,23.23
2023-01-25T18:21:26.962Z,24.45
2023-01-25T18:23:56.662Z,26.80
2023-01-25T18:26:27.432Z,22.17
2023-01-25T18:28:58.937Z,23.80
2023-01-25T18:31:26.125Z,23.00
2023-01-25T18:33:53.006Z,23.48
2023-01-25T18:36:20.473Z,27.05
2023-01-25T18:38:47.243Z,29.65
2023-01-25T18:41:14.068Z,28.40
2023-01-25T18:43:40.881Z,26.90
2023-01-25T18:46:08.801Z,28.13
2023-01-25T18:48:36.347Z,26.40
2023-01-25T18:51:12.935Z,24.17
2023-01-25T18:53:43.894Z,24.38
2023-01-25T18:56:20.641Z,25.00
2023-01-25T18:58:50.156Z,26.13
2023-01-25T19:01:22.281Z,25.33
2023-01-25T19:03:50.262Z,25.88
2023-01-25T19:06:18.899Z,26.52
2023-01-25T19:08:49.779Z,25.77
2023-01-25T19:11:21.975Z,28.10
2023-01-25T19:13:49.837Z,30.50
2023-01-25T19:16:19.817Z,26.58
2023-01-25T19:18:50.089Z,26.10
2023-01-25T19:21:27.908Z,26.70
2023-01-25T19:23:56.043Z,24.27
2023-01-25T19:26:27.475Z,24.88
2023-01-25T19:28:54.966Z,21.65
2023-01-25T19:31:26.449Z,25.23
2023-01-25T19:34:05.360Z,25.15
2023-01-25T19:36:38.852Z,26.45
2023-01-25T19:39:10.151Z,23.23
2023-01-25T19:41:40.198Z,24.40
2023-01-25T19:44:09.573Z,21.90
2023-01-25T19:46:37.333Z,19.67
2023-01-25T19:49:08.070Z,22.65
2023-01-25T19:51:37.703Z,20.27
2023-01-25T19:54:07.040Z,20.42
2023-01-25T19:56:36.880Z,22.90
2023-01-25T19:59:05.878Z,20.95
2023-01-25T20:01:35.208Z,20.02
2023-01-25T20:04:04.189Z,21.98
2023-01-25T20:06:30.940Z,22.27
2023-01-25T20:08:57.987Z,23.85
2023-01-25T20:11:27.158Z,22.30
2023-01-25T20:14:00.166Z,23.90
2023-01-25T20:16:28.189Z,22.52
2023-01-25T20:18:56.693Z,22.85
2023-01-25T20:21:25.093Z,22.10
2023-01-25T20:23:56.126Z,21.02
2023-01-25T20:26:26.184Z,20.77
2023-01-25T20:28:54.288Z,22.20
2023-01-25T20:31:21.098Z,21.55
2023-01-25T20:33:48.875Z,21.20
2023-01-25T20:36:16.324Z,21.10
2023-01-25T20:38:43.748Z,22.05
2023-01-25T20:41:15.885Z,21.67
2023-01-25T20:44:01.984Z,23.30
2023-01-25T20:46:33.847Z,22.70
2023-01-25T20:49:05.674Z,23.07
2023-01-25T20:51:33.681Z,22.27
2023-01-25T20:54:00.928Z,20.77
2023-01-25T20:56:28.478Z,22.15
2023-01-25T20:58:55.529Z,24.25
2023-01-25T21:01:30.972Z,20.77
2023-01-25T21:03:58.461Z,21.80
2023-01-25T21:06:27.503Z,21.52
2023-01-25T21:08:54.610Z,19.60
2023-01-25T21:11:23.157Z,21.33
2023-01-25T21:13:49.977Z,21.77
2023-01-25T21:16:21.603Z,23.60
2023-01-25T21:18:54.494Z,22.90
2023-01-25T21:21:27.756Z,19.92
2023-01-25T21:23:57.642Z,18.45
2023-01-25T21:26:27.510Z,21.63
2023-01-25T21:28:55.138Z,18.98
2023-01-25T21:31:30.825Z,19.27
2023-01-25T21:33:57.586Z,17.83
2023-01-25T21:36:25.040Z,18.77
2023-01-25T21:38:53.907Z,16.75
2023-01-25T21:41:21.957Z,16.23
2023-01-25T21:44:08.173Z,16.85
2023-01-25T21:46:34.999Z,16.25
2023-01-25T21:49:26.006Z,16.85
2023-01-25T21:51:54.387Z,16.13
2023-01-25T21:54:26.459Z,14.18
2023-01-25T21:56:56.087Z,16.00
2023-01-25T21:59:23.287Z,15.25
2023-01-25T22:01:51.219Z,14.75
2023-01-25T22:04:19.537Z,14.88
2023-01-25T22:06:48.733Z,14.80
2023-01-25T22:09:16.036Z,15.88
2023-01-25T22:11:45.866Z,16.13
2023-01-25T22:14:16.012Z,17.58
2023-01-25T22:16:42.854Z,15.18
2023-01-25T22:19:09.647Z,15.95
2023-01-25T22:21:36.424Z,15.80
2023-01-25T22:24:05.506Z,17.80
2023-01-25T22:27:02.535Z,16.48
2023-01-25T22:29:29.976Z,15.52
2023-01-25T22:31:56.900Z,16.58
2023-01-25T22:34:23.796Z,18.10
2023-01-25T22:36:50.654Z,17.10
2023-01-25T22:39:17.431Z,14.88
2023-01-25T22:41:44.350Z,20.52
2023-01-25T22:44:11.442Z,18.40
2023-01-25T22:46:38.347Z,16.60
2023-01-25T22:49:05.483Z,15.18
2023-01-25T22:51:32.718Z,15.75
2023-01-25T22:54:00.330Z,16.95
2023-01-25T22:56:34.029Z,17.02
2023-01-25T22:59:01.509Z,18.02
2023-01-25T23:01:33.793Z,18.90
2023-01-25T23:04:01.915Z,17.10
2023-01-25T23:06:31.248Z,18.67
2023-01-25T23:09:03.496Z,17.88
2023-01-25T23:11:35.406Z,20.02
2023-01-25T23:14:21.815Z,17.02
2023-01-25T23:16:48.636Z,15.07
2023-01-25T23:19:15.573Z,15.55
2023-01-25T23:21:42.525Z,14.77
2023-01-25T23:24:09.959Z,17.33
2023-01-25T23:26:46.236Z,17.92
2023-01-25T23:29:14.354Z,17.27
2023-01-25T23:31:41.173Z,18.00
2023-01-25T23:34:07.949Z,15.90
2023-01-25T23:36:41.819Z,17.10
2023-01-25T23:39:11.766Z,18.40
2023-01-25T23:41:38.554Z,17.15
2023-01-25T23:44:05.660Z,18.73
2023-01-25T23:46:32.481Z,19.60
2023-01-25T23:48:59.269Z,18.25
2023-01-25T23:51:26.090Z,18.52
2023-01-25T23:53:53.513Z,18.70
2023-01-25T23:56:21.739Z,17.67
2023-01-25T23:58:49.083Z,19.27
